createdAt,value
2019-02-11T00:00:51.167Z,98704.02
2019-02-11T00:03:19.755Z,98709.08
2019-02-11T00:05:48.851Z,98709.91
2019-02-11T00:08:17.415Z,98704.33
2019-02-11T00:10:45.963Z,98721.11
2019-02-11T00:13:14.524Z,98717.92
2019-02-11T00:15:43.076Z,98719.51
2019-02-11T00:18:11.647Z,98725.45
2019-02-11T00:20:40.198Z,98730.40
2019-02-11T00:23:08.813Z,98739.51
2019-02-11T00:25:37.399Z,98740.10
2019-02-11T00:28:05.936Z,98751.75
2019-02-11T00:30:34.495Z,98758.52
2019-02-11T00:33:03.045Z,98755.42
2019-02-11T00:35:31.654Z,98767.34
2019-02-11T00:38:00.194Z,98764.29
2019-02-11T00:40:28.735Z,98765.92
2019-02-11T00:42:57.299Z,98774.52
2019-02-11T00:45:25.895Z,98776.07
2019-02-11T00:47:54.455Z,98783.81
2019-02-11T00:50:23.030Z,98788.11
2019-02-11T00:52:51.610Z,98788.19
2019-02-11T00:55:20.153Z,98790.98
2019-02-11T00:57:48.710Z,98798.67
2019-02-11T01:00:17.265Z,98802.45
2019-02-11T01:02:45.827Z,98798.35
2019-02-11T01:05:14.391Z,98805.18
2019-02-11T01:07:42.939Z,98806.33
2019-02-11T01:10:12.139Z,98816.73
2019-02-11T01:12:40.974Z,98823.08
2019-02-11T01:15:11.477Z,98823.13
2019-02-11T01:17:40.319Z,98834.52
2019-02-11T01:20:10.924Z,98834.52
2019-02-11T01:22:39.508Z,98835.69
2019-02-11T01:25:08.813Z,98837.63
2019-02-11T01:27:37.370Z,98841.23
2019-02-11T01:30:09.257Z,98850.95
2019-02-11T01:32:38.089Z,98853.96
2019-02-11T01:35:07.759Z,98866.19
2019-02-11T01:37:36.631Z,98867.08
2019-02-11T01:40:08.724Z,98879.72
2019-02-11T01:42:37.569Z,98880.77
2019-02-11T01:45:11.715Z,98893.42
2019-02-11T01:47:40.564Z,98903.81
2019-02-11T01:50:11.537Z,98904.63
2019-02-11T01:52:40.401Z,98909.23
2019-02-11T01:55:09.508Z,98916.80
2019-02-11T01:57:38.393Z,98916.80
2019-02-11T02:00:10.520Z,98914.83
2019-02-11T02:02:39.367Z,98914.83
2019-02-11T02:05:09.144Z,98919.67
2019-02-11T02:07:38.239Z,98932.72
2019-02-11T02:10:13.267Z,98935.41
2019-02-11T02:12:42.087Z,98938.84
2019-02-11T02:15:13.589Z,98938.84
2019-02-11T02:17:42.419Z,98953.85
2019-02-11T02:20:15.583Z,98939.09
2019-02-11T02:22:44.449Z,98947.88
2019-02-11T02:25:13.281Z,98961.38
2019-02-11T02:27:42.132Z,98961.38
2019-02-11T02:30:13.218Z,98971.05
2019-02-11T02:32:42.068Z,98971.05
2019-02-11T02:35:10.909Z,98987.82
2019-02-11T02:37:39.731Z,98994.42
2019-02-11T02:40:10.126Z,98993.97
2019-02-11T02:42:38.959Z,98988.52
2019-02-11T02:45:09.434Z,99021.84
2019-02-11T02:47:38.305Z,99016.01
2019-02-11T02:50:09.291Z,99024.19
2019-02-11T02:52:38.153Z,99028.03
2019-02-11T02:55:08.326Z,99035.63
2019-02-11T02:57:37.149Z,99046.36
2019-02-11T03:00:11.149Z,99057.23
2019-02-11T03:02:40.034Z,99066.38
2019-02-11T03:05:09.649Z,99074.30
2019-02-11T03:07:38.497Z,99079.81
2019-02-11T03:10:11.360Z,99089.27
2019-02-11T03:12:40.185Z,99098.23
2019-02-11T03:15:10.869Z,99102.30
2019-02-11T03:17:39.767Z,99114.41
2019-02-11T03:20:09.751Z,99119.00
2019-02-11T03:22:38.591Z,99121.77
2019-02-11T03:25:08.581Z,99137.34
2019-02-11T03:27:37.526Z,99143.77
2019-02-11T03:30:09.294Z,99156.46
2019-02-11T03:32:38.139Z,99171.08
2019-02-11T03:35:07.596Z,99179.26
2019-02-11T03:37:36.473Z,99188.56
2019-02-11T03:40:07.883Z,99194.40
2019-02-11T03:42:36.734Z,99206.92
2019-02-11T03:45:08.906Z,99214.52
2019-02-11T03:47:37.745Z,99213.77
2019-02-11T03:50:09.562Z,99219.02
2019-02-11T03:52:38.479Z,99231.95
2019-02-11T03:55:08.266Z,99234.66
2019-02-11T03:57:37.143Z,99246.34
2019-02-11T04:00:09.555Z,99261.95
2019-02-11T04:02:38.405Z,99256.11
2019-02-11T04:05:07.813Z,99274.69
2019-02-11T04:07:36.694Z,99270.56
2019-02-11T04:10:10.381Z,99280.44
2019-02-11T04:12:39.267Z,99291.67
2019-02-11T04:15:09.167Z,99307.51
2019-02-11T04:17:38.015Z,99311.58
2019-02-11T04:20:08.340Z,99313.80
2019-02-11T04:22:37.182Z,99318.94
2019-02-11T04:25:07.269Z,99322.52
2019-02-11T04:27:36.146Z,99341.02
2019-02-11T04:30:07.370Z,99340.78
2019-02-11T04:32:36.257Z,99352.23
2019-02-11T04:35:06.297Z,99347.91
2019-02-11T04:37:35.181Z,99356.30
2019-02-11T04:40:06.047Z,99362.48
2019-02-11T04:42:34.899Z,99377.69
2019-02-11T04:45:04.246Z,99382.52
2019-02-11T04:47:33.130Z,99389.56
2019-02-11T04:50:02.051Z,99402.03
2019-02-11T04:52:30.904Z,99395.71
2019-02-11T04:54:59.759Z,99418.19
2019-02-11T04:57:28.643Z,99404.88
2019-02-11T04:59:57.480Z,99415.86
2019-02-11T05:02:26.351Z,99432.22
2019-02-11T05:04:55.226Z,99429.65
2019-02-11T05:07:24.122Z,99430.17
2019-02-11T05:09:52.975Z,99438.54
2019-02-11T05:12:21.829Z,99441.80
2019-02-11T05:14:50.690Z,99446.70
2019-02-11T05:17:19.533Z,99460.08
2019-02-11T05:19:48.393Z,99472.11
2019-02-11T05:22:17.271Z,99471.66
2019-02-11T05:24:46.111Z,99477.22
2019-02-11T05:27:14.971Z,99481.28
2019-02-11T05:29:43.821Z,99480.83
2019-02-11T05:32:12.669Z,99493.75
2019-02-11T05:34:41.504Z,99499.07
2019-02-11T05:37:10.391Z,99496.84
2019-02-11T05:39:39.236Z,99511.97
2019-02-11T05:42:08.095Z,99518.92
2019-02-11T05:44:36.951Z,99521.14
2019-02-11T05:47:05.833Z,99515.89
2019-02-11T05:49:34.699Z,99528.27
2019-02-11T05:52:03.566Z,99544.54
2019-02-11T05:54:32.417Z,99553.89
2019-02-11T05:57:01.288Z,99542.42
2019-02-11T05:59:30.137Z,99550.38
2019-02-11T06:01:59.008Z,99555.28
2019-02-11T06:04:27.856Z,99560.98
2019-02-11T06:06:56.742Z,99562.12
2019-02-11T06:09:25.598Z,99571.73
2019-02-11T06:11:54.454Z,99582.13
2019-02-11T06:14:24.831Z,99589.05
2019-02-11T06:16:53.671Z,99594.95
2019-02-11T06:19:22.534Z,99591.61
2019-02-11T06:21:51.398Z,99602.12
2019-02-11T06:24:20.284Z,99613.24
2019-02-11T06:26:49.122Z,99613.42
2019-02-11T06:29:19.063Z,99617.87
2019-02-11T06:31:48.058Z,99632.61
2019-02-11T06:34:16.911Z,99634.95
2019-02-11T06:36:45.816Z,99645.24
2019-02-11T06:39:14.684Z,99657.23
2019-02-11T06:41:43.513Z,99642.25
2019-02-11T06:44:29.098Z,99665.83
2019-02-11T06:46:57.966Z,99667.33
2019-02-11T06:49:26.823Z,99677.17
2019-02-11T06:51:55.704Z,99680.34
2019-02-11T06:54:24.563Z,99689.39
2019-02-11T06:56:53.404Z,99696.24
2019-02-11T06:59:22.286Z,99700.36
2019-02-11T07:01:51.140Z,99704.14
2019-02-11T07:04:20.019Z,99707.15
2019-02-11T07:06:48.893Z,99716.05
2019-02-11T07:09:17.754Z,99714.52
2019-02-11T07:11:46.624Z,99723.05
2019-02-11T07:14:15.496Z,99736.64
2019-02-11T07:16:44.328Z,99731.11
2019-02-11T07:19:13.194Z,99746.45
2019-02-11T07:21:42.100Z,99751.26
2019-02-11T07:24:10.984Z,99763.67
2019-02-11T07:26:39.908Z,99770.56
2019-02-11T07:29:08.786Z,99775.00
2019-02-11T07:31:37.653Z,99768.86
2019-02-11T07:34:06.515Z,99767.41
2019-02-11T07:36:35.383Z,99773.05
2019-02-11T07:39:07.282Z,99776.08
2019-02-11T07:41:40.572Z,99796.17
2019-02-11T07:44:11.064Z,99787.55
2019-02-11T07:46:41.123Z,99803.14
2019-02-11T07:49:10.003Z,99809.44
2019-02-11T07:51:42.364Z,99816.89
2019-02-11T07:54:09.523Z,99828.41
2019-02-11T07:56:38.408Z,99844.84
2019-02-11T07:59:07.307Z,99836.71
2019-02-11T08:01:36.165Z,99844.97
2019-02-11T08:04:05.046Z,99830.47
2019-02-11T08:06:33.942Z,99858.55
2019-02-11T08:09:04.419Z,99853.78
2019-02-11T08:11:33.273Z,99852.80
2019-02-11T08:14:02.159Z,99860.48
2019-02-11T08:16:31.058Z,99862.83
2019-02-11T08:18:59.899Z,99861.20
2019-02-11T08:21:28.794Z,99870.22
2019-02-11T08:23:57.655Z,99873.50
2019-02-11T08:26:26.510Z,99872.79
2019-02-11T08:28:55.375Z,99879.14
2019-02-11T08:31:24.236Z,99884.48
2019-02-11T08:33:53.106Z,99887.77
2019-02-11T08:36:21.992Z,99896.22
2019-02-11T08:38:50.856Z,99902.61
2019-02-11T08:41:19.716Z,99899.92
2019-02-11T08:43:48.596Z,99904.00
2019-02-11T08:46:17.457Z,99922.64
2019-02-11T08:48:46.332Z,99924.64
2019-02-11T08:51:15.190Z,99932.36
2019-02-11T08:53:44.046Z,99942.81
2019-02-11T08:56:12.926Z,99950.66
2019-02-11T08:58:41.776Z,99962.14
2019-02-11T09:01:10.671Z,99962.14
2019-02-11T09:03:39.537Z,99978.94
2019-02-11T09:06:08.394Z,99980.64
2019-02-11T09:08:37.278Z,99986.28
2019-02-11T09:11:06.127Z,99999.52
2019-02-11T09:13:34.989Z,100002.20
2019-02-11T09:16:03.906Z,99999.70
2019-02-11T09:18:32.829Z,100006.33
2019-02-11T09:21:01.688Z,100018.55
2019-02-11T09:23:30.554Z,100022.98
2019-02-11T09:25:59.391Z,100027.91
2019-02-11T09:28:28.312Z,100027.91
2019-02-11T09:30:57.156Z,100043.22
2019-02-11T09:33:26.016Z,100038.63
2019-02-11T09:35:54.930Z,100043.30
2019-02-11T09:38:23.842Z,100054.20
2019-02-11T09:40:52.405Z,100054.20
2019-02-11T09:43:20.977Z,100063.91
2019-02-11T09:45:49.861Z,100064.52
2019-02-11T09:48:18.751Z,100068.39
2019-02-11T09:50:48.829Z,100076.16
2019-02-11T09:53:17.719Z,100076.16
2019-02-11T09:55:46.286Z,100079.73
2019-02-11T09:58:14.852Z,100071.26
2019-02-11T10:00:43.443Z,100095.16
2019-02-11T10:03:12.013Z,100090.30
2019-02-11T10:05:40.571Z,100106.31
2019-02-11T10:08:09.168Z,100101.23
2019-02-11T10:10:37.735Z,100108.78
2019-02-11T10:13:06.338Z,100106.45
2019-02-11T10:15:35.182Z,100112.64
2019-02-11T10:18:03.753Z,100118.85
2019-02-11T10:20:32.350Z,100127.47
2019-02-11T10:23:01.212Z,100115.83
2019-02-11T10:25:31.028Z,100117.12
2019-02-11T10:28:05.526Z,100128.31
2019-02-11T10:30:34.258Z,100141.78
2019-02-11T10:33:02.822Z,100138.45
2019-02-11T10:35:31.392Z,100146.30
2019-02-11T10:38:00.025Z,100150.70
2019-02-11T10:40:28.593Z,100145.19
2019-02-11T10:42:57.172Z,100162.19
2019-02-11T10:45:26.009Z,100160.41
2019-02-11T10:47:54.612Z,100160.22
2019-02-11T10:50:23.164Z,100166.36
2019-02-11T10:52:51.729Z,100158.39
2019-02-11T10:55:21.774Z,100162.78
2019-02-11T10:57:50.323Z,100171.14
2019-02-11T11:00:23.664Z,100167.18
2019-02-11T11:02:52.227Z,100174.56
2019-02-11T11:05:20.790Z,100181.62
2019-02-11T11:07:49.710Z,100187.66
2019-02-11T11:10:21.645Z,100188.58
2019-02-11T11:12:50.208Z,100187.15
2019-02-11T11:15:19.424Z,100205.80
2019-02-11T11:17:47.996Z,100199.42
2019-02-11T11:20:18.096Z,100214.97
2019-02-11T11:22:46.824Z,100212.52
2019-02-11T11:25:17.631Z,100224.50
2019-02-11T11:27:46.224Z,100225.56
2019-02-11T11:30:19.089Z,100226.27
2019-02-11T11:32:47.878Z,100240.11
2019-02-11T11:35:17.771Z,100239.28
2019-02-11T11:37:46.335Z,100235.03
2019-02-11T11:40:24.600Z,100241.42
2019-02-11T11:42:53.162Z,100242.95
2019-02-11T11:45:21.987Z,100240.23
2019-02-11T11:47:50.592Z,100246.70
2019-02-11T11:50:19.336Z,100245.53
2019-02-11T11:52:47.961Z,100243.66
2019-02-11T11:55:18.616Z,100253.06
2019-02-11T11:57:47.388Z,100253.59
2019-02-11T12:00:22.090Z,100272.68
2019-02-11T12:03:01.515Z,100267.23
2019-02-11T12:05:21.626Z,100276.44
2019-02-11T12:07:50.197Z,100278.03
2019-02-11T12:10:18.746Z,100277.48
2019-02-11T12:12:47.340Z,100278.23
2019-02-11T12:15:21.265Z,100280.05
2019-02-11T12:17:50.118Z,100291.16
2019-02-11T12:20:18.693Z,100286.88
2019-02-11T12:22:47.322Z,100305.52
2019-02-11T12:25:17.648Z,100316.66
2019-02-11T12:27:46.263Z,100317.61
2019-02-11T12:30:20.649Z,100322.85
2019-02-11T12:32:49.230Z,100323.50
2019-02-11T12:35:17.963Z,100318.37
2019-02-11T12:37:46.514Z,100333.80
2019-02-11T12:40:15.120Z,100344.51
2019-02-11T12:42:43.884Z,100351.41
2019-02-11T12:45:18.402Z,100354.73
2019-02-11T12:47:46.982Z,100370.42
2019-02-11T12:50:17.361Z,100370.05
2019-02-11T12:52:46.032Z,100374.27
2019-02-11T12:55:18.726Z,100373.55
2019-02-11T12:57:47.288Z,100381.99
2019-02-11T13:00:20.594Z,100386.24
2019-02-11T13:02:49.460Z,100387.09
2019-02-11T13:05:22.152Z,100393.63
2019-02-11T13:07:48.745Z,100393.20
2019-02-11T13:10:20.259Z,100405.75
2019-02-11T13:12:49.192Z,100395.56
2019-02-11T13:15:52.609Z,100404.09
2019-02-11T13:17:49.689Z,100405.00
2019-02-11T13:20:19.238Z,100419.94
2019-02-11T13:22:48.118Z,100422.41
2019-02-11T13:25:18.022Z,100438.06
2019-02-11T13:27:46.707Z,100429.17
2019-02-11T13:30:20.340Z,100431.98
2019-02-11T13:32:48.980Z,100447.72
2019-02-11T13:35:17.615Z,100465.65
2019-02-11T13:37:46.369Z,100465.77
2019-02-11T13:40:15.089Z,100459.12
2019-02-11T13:42:43.722Z,100456.34
2019-02-11T13:45:15.182Z,100479.92
2019-02-11T13:47:53.749Z,100494.75
2019-02-11T13:50:23.012Z,100496.58
2019-02-11T13:52:51.924Z,100503.34
2019-02-11T13:55:21.151Z,100507.75
2019-02-11T13:57:50.148Z,100513.99
2019-02-11T14:00:25.291Z,100518.00
2019-02-11T14:02:58.966Z,100513.54
2019-02-11T14:05:28.749Z,100525.17
2019-02-11T14:07:59.761Z,100516.77
2019-02-11T14:10:28.748Z,100530.43
2019-02-11T14:12:57.667Z,100533.51
2019-02-11T14:15:26.506Z,100543.73
2019-02-11T14:18:10.446Z,100552.13
2019-02-11T14:20:27.214Z,100579.95
2019-02-11T14:22:55.781Z,100582.14
2019-02-11T14:25:40.614Z,100590.78
2019-02-11T14:27:54.658Z,100584.94
2019-02-11T14:30:23.509Z,100597.48
2019-02-11T14:32:52.322Z,100615.45
2019-02-11T14:35:21.247Z,100612.36
2019-02-11T14:37:50.103Z,100618.78
2019-02-11T14:40:19.053Z,100621.69
2019-02-11T14:42:47.666Z,100638.15
2019-02-11T14:45:20.280Z,100639.86
2019-02-11T14:47:48.888Z,100634.19
2019-02-11T14:50:17.463Z,100650.44
2019-02-11T14:52:46.083Z,100652.26
2019-02-11T14:55:14.685Z,100648.58
2019-02-11T14:57:43.275Z,100651.00
2019-02-11T15:00:16.194Z,100661.52
2019-02-11T15:02:44.779Z,100679.79
2019-02-11T15:05:14.617Z,100673.34
2019-02-11T15:07:44.407Z,100685.78
2019-02-11T15:10:13.663Z,100706.77
2019-02-11T15:12:42.231Z,100697.09
2019-02-11T15:15:12.030Z,100710.33
2019-02-11T15:17:42.262Z,100703.17
2019-02-11T15:20:15.619Z,100713.09
2019-02-11T15:22:44.234Z,100727.29
2019-02-11T15:25:17.281Z,100724.52
2019-02-11T15:27:45.827Z,100728.67
2019-02-11T15:30:16.433Z,100731.67
2019-02-11T15:32:45.025Z,100736.01
2019-02-11T15:35:13.762Z,100732.14
2019-02-11T15:37:42.315Z,100742.73
2019-02-11T15:40:13.940Z,100743.11
2019-02-11T15:42:42.501Z,100755.87
2019-02-11T15:45:13.468Z,100767.34
2019-02-11T15:47:42.327Z,100772.73
2019-02-11T15:50:13.973Z,100780.74
2019-02-11T15:52:42.518Z,100787.02
2019-02-11T15:55:15.469Z,100788.42
2019-02-11T15:57:44.339Z,100784.92
2019-02-11T16:00:15.269Z,100805.09
2019-02-11T16:02:44.138Z,100813.48
2019-02-11T16:05:16.516Z,100807.98
2019-02-11T16:07:43.085Z,100821.55
2019-02-11T16:10:26.613Z,100845.49
2019-02-11T16:12:55.231Z,100845.87
2019-02-11T16:15:24.068Z,100856.83
2019-02-11T16:17:52.930Z,100860.86
2019-02-11T16:20:21.831Z,100860.86
2019-02-11T16:22:50.655Z,100874.40
2019-02-11T16:25:19.509Z,100878.99
2019-02-11T16:27:48.386Z,100896.88
2019-02-11T16:30:18.946Z,100896.88
2019-02-11T16:32:47.857Z,100925.59
2019-02-11T16:35:17.945Z,100925.59
2019-02-11T16:37:47.184Z,100946.94
2019-02-11T16:40:24.331Z,100959.66
2019-02-11T16:42:53.183Z,100952.28
2019-02-11T16:45:22.103Z,100969.13
2019-02-11T16:47:51.069Z,100979.92
2019-02-11T16:50:19.920Z,101000.91
2019-02-11T16:52:48.791Z,101000.91
2019-02-11T16:55:17.643Z,100993.92
2019-02-11T16:57:46.528Z,100993.92
2019-02-11T17:00:19.585Z,100998.30
2019-02-11T17:02:48.524Z,101010.36
2019-02-11T17:05:17.468Z,101014.26
2019-02-11T17:07:46.324Z,101009.52
2019-02-11T17:10:16.028Z,101035.70
2019-02-11T17:12:44.901Z,101035.70
2019-02-11T17:15:20.692Z,101027.02
2019-02-11T17:17:49.564Z,101045.83
2019-02-11T17:20:18.442Z,101064.84
2019-02-11T17:22:47.304Z,101064.84
2019-02-11T17:25:16.334Z,101071.78
2019-02-11T17:27:45.206Z,101075.58
2019-02-11T17:30:32.204Z,101075.58
2019-02-11T17:33:01.118Z,101079.44
2019-02-11T17:35:29.968Z,101098.77
2019-02-11T17:37:58.842Z,101098.77
2019-02-11T17:40:27.742Z,101090.13
2019-02-11T17:42:56.601Z,101095.39
2019-02-11T17:45:27.201Z,101103.93
2019-02-11T17:47:56.216Z,101107.50
2019-02-11T17:50:25.079Z,101112.13
2019-02-11T17:52:56.738Z,101124.70
2019-02-11T17:55:25.621Z,101143.25
2019-02-11T17:57:54.480Z,101144.42
2019-02-11T18:00:31.122Z,101148.29
2019-02-11T18:03:00.037Z,101152.27
2019-02-11T18:05:28.859Z,101155.03
2019-02-11T18:07:57.723Z,101155.54
2019-02-11T18:10:26.679Z,101152.05
2019-02-11T18:12:55.569Z,101168.41
2019-02-11T18:15:24.480Z,101179.70
2019-02-11T18:17:53.350Z,101186.22
2019-02-11T18:20:22.212Z,101185.63
2019-02-11T18:22:51.097Z,101189.48
2019-02-11T18:25:19.976Z,101204.53
2019-02-11T18:27:48.848Z,101210.67
2019-02-11T18:30:17.864Z,101207.22
2019-02-11T18:32:46.963Z,101213.27
2019-02-11T18:35:20.714Z,101220.78
2019-02-11T18:37:49.590Z,101225.81
2019-02-11T18:40:18.468Z,101240.48
2019-02-11T18:42:47.335Z,101233.35
2019-02-11T18:45:17.436Z,101242.06
2019-02-11T18:47:46.430Z,101265.05
2019-02-11T18:50:16.023Z,101258.09
2019-02-11T18:52:44.875Z,101271.25
2019-02-11T18:55:16.121Z,101272.83
2019-02-11T18:57:46.161Z,101281.84
2019-02-11T19:00:19.602Z,101284.41
2019-02-11T19:02:49.144Z,101288.90
2019-02-11T19:05:18.377Z,101296.06
2019-02-11T19:07:47.274Z,101288.17
2019-02-11T19:10:18.437Z,101288.37
2019-02-11T19:12:47.377Z,101293.92
2019-02-11T19:15:17.604Z,101298.06
2019-02-11T19:17:46.528Z,101316.27
2019-02-11T19:20:16.644Z,101310.82
2019-02-11T19:22:45.526Z,101310.91
2019-02-11T19:25:15.708Z,101314.28
2019-02-11T19:27:45.071Z,101329.81
2019-02-11T19:30:22.262Z,101330.12
2019-02-11T19:32:51.170Z,101327.73
2019-02-11T19:35:20.074Z,101340.11
2019-02-11T19:37:48.934Z,101345.11
2019-02-11T19:40:19.939Z,101355.11
2019-02-11T19:42:48.864Z,101360.55
2019-02-11T19:45:21.916Z,101357.20
2019-02-11T19:47:50.757Z,101352.34
2019-02-11T19:50:19.759Z,101363.31
2019-02-11T19:52:48.811Z,101365.89
2019-02-11T19:55:17.825Z,101379.72
2019-02-11T19:57:46.946Z,101377.72
2019-02-11T20:00:20.348Z,101375.06
2019-02-11T20:02:50.182Z,101395.52
2019-02-11T20:05:19.192Z,101387.44
2019-02-11T20:07:48.207Z,101400.62
2019-02-11T20:10:24.583Z,101407.38
2019-02-11T20:12:53.442Z,101415.57
2019-02-11T20:15:25.213Z,101410.83
2019-02-11T20:17:54.154Z,101413.00
2019-02-11T20:20:23.516Z,101416.45
2019-02-11T20:22:52.398Z,101415.65
2019-02-11T20:25:21.265Z,101417.02
2019-02-11T20:27:51.080Z,101423.72
2019-02-11T20:30:22.581Z,101428.29
2019-02-11T20:32:51.494Z,101431.43
2019-02-11T20:35:22.678Z,101436.20
2019-02-11T20:37:51.516Z,101429.70
2019-02-11T20:40:26.053Z,101432.06
2019-02-11T20:42:54.954Z,101443.45
2019-02-11T20:45:28.677Z,101443.03
2019-02-11T20:47:57.813Z,101453.86
2019-02-11T20:50:26.664Z,101449.95
2019-02-11T20:52:55.569Z,101454.60
2019-02-11T20:55:24.450Z,101452.45
2019-02-11T20:57:56.062Z,101458.73
2019-02-11T21:00:26.133Z,101454.88
2019-02-11T21:02:54.996Z,101472.14
2019-02-11T21:05:24.399Z,101459.91
2019-02-11T21:07:53.282Z,101467.27
2019-02-11T21:10:23.795Z,101469.11
2019-02-11T21:12:54.201Z,101470.58
2019-02-11T21:15:23.805Z,101471.53
2019-02-11T21:17:52.671Z,101470.45
2019-02-11T21:20:30.394Z,101475.13
2019-02-11T21:22:59.316Z,101471.00
2019-02-11T21:25:28.170Z,101475.74
2019-02-11T21:27:57.021Z,101491.50
2019-02-11T21:30:25.908Z,101491.67
2019-02-11T21:32:54.786Z,101488.31
2019-02-11T21:35:23.678Z,101493.23
2019-02-11T21:37:52.583Z,101498.03
2019-02-11T21:40:21.454Z,101498.17
2019-02-11T21:42:50.335Z,101502.83
2019-02-11T21:45:19.230Z,101506.95
2019-02-11T21:47:48.110Z,101509.17
2019-02-11T21:50:26.318Z,101510.98
2019-02-11T21:52:49.838Z,101521.13
2019-02-11T21:55:20.756Z,101524.23
2019-02-11T21:57:49.894Z,101526.93
2019-02-11T22:00:25.065Z,101524.36
2019-02-11T22:02:53.976Z,101535.17
2019-02-11T22:05:22.850Z,101525.48
2019-02-11T22:07:51.777Z,101531.23
2019-02-11T22:10:22.550Z,101532.84
2019-02-11T22:12:51.452Z,101533.98
2019-02-11T22:15:20.401Z,101533.31
2019-02-11T22:17:49.248Z,101537.58
2019-02-11T22:20:22.796Z,101528.45
2019-02-11T22:22:51.670Z,101536.38
2019-02-11T22:25:20.947Z,101533.22
2019-02-11T22:27:49.847Z,101543.55
2019-02-11T22:30:21.776Z,101542.63
2019-02-11T22:32:50.639Z,101551.65
2019-02-11T22:35:19.518Z,101540.09
2019-02-11T22:37:50.347Z,101541.34
2019-02-11T22:40:19.294Z,101547.12
2019-02-11T22:42:48.148Z,101555.20
2019-02-11T22:45:22.858Z,101560.86
2019-02-11T22:47:51.722Z,101568.25
2019-02-11T22:50:20.582Z,101579.45
2019-02-11T22:52:49.446Z,101572.98
2019-02-11T22:55:18.313Z,101577.23
2019-02-11T22:57:47.271Z,101586.34
2019-02-11T23:00:27.008Z,101603.14
2019-02-11T23:02:55.896Z,101595.47
2019-02-11T23:05:24.742Z,101590.07
2019-02-11T23:07:53.600Z,101591.09
2019-02-11T23:10:22.479Z,101601.62
2019-02-11T23:12:51.350Z,101601.23
2019-02-11T23:15:20.321Z,101599.81
2019-02-11T23:17:49.171Z,101604.33
2019-02-11T23:20:18.042Z,101604.95
2019-02-11T23:22:46.913Z,101611.67
2019-02-11T23:25:15.777Z,101620.00
2019-02-11T23:27:44.670Z,101619.34
2019-02-11T23:30:13.952Z,101625.58
2019-02-11T23:32:42.840Z,101630.81
2019-02-11T23:35:11.713Z,101639.61
2019-02-11T23:37:40.592Z,101635.49
2019-02-11T23:40:10.402Z,101640.11
2019-02-11T23:42:39.250Z,101639.97
2019-02-11T23:45:09.918Z,101655.28
2019-02-11T23:47:38.805Z,101651.70
2019-02-11T23:50:11.505Z,101651.92
2019-02-11T23:52:40.353Z,101648.83
2019-02-11T23:55:10.163Z,101657.28
2019-02-11T23:57:39.010Z,101669.86
